Terminal Aerodrome Forecast
Issued by NWS

Home | Current Version | Previous Version | Text Only | Print | Product List | Glossary On
Versions: 1 2 3 4 5 6 7 8 9 10 11 12 13 14 15
000
FTAK31 PAJN 292321
TAFAWG
TAF
PAWG 292321Z 3000/3024 08005KT 6SM -SHRA BR FEW010 BKN035 OVC050
     FM300300 10007KT P6SM -SHRA SCT020 BKN040 OVC060
     FM301200 12005KT P6SM -SHRA BKN040 OVC060
     FM301800 09005KT P6SM VCSH BKN050 OVC070
      AMD LTD TO CLD VIS AND WIND 3006/3015=

USA.gov is the U.S. government's official web portal to all federal, state and local government web resources and services.